sensor_id;sensor_type;location;lat;lon;timestamp;pressure;altitude;pressure_sealevel;temperature;humidity
39681;BME280;26327;42.550;23.120;2024-01-10T00:02:18;93664.97;;;-3.40;91.66
39681;BME280;26327;42.550;23.120;2024-01-10T00:04:44;93604.03;;;-4.07;92.07
39681;BME280;26327;42.550;23.120;2024-01-10T00:07:09;93573.66;;;-4.09;91.35
39681;BME280;26327;42.550;23.120;2024-01-10T00:09:35;93668.94;;;-3.52;91.56
39681;BME280;26327;42.550;23.120;2024-01-10T00:12:00;93670.41;;;-3.98;93.13
39681;BME280;26327;42.550;23.120;2024-01-10T00:14:25;93662.19;;;-3.68;91.66
39681;BME280;26327;42.550;23.120;2024-01-10T00:16:51;93662.22;;;-3.53;91.21
39681;BME280;26327;42.550;23.120;2024-01-10T00:19:16;93672.19;;;-3.32;90.13
39681;BME280;26327;42.550;23.120;2024-01-10T00:21:42;93628.16;;;-3.49;89.83
39681;BME280;26327;42.550;23.120;2024-01-10T00:24:07;93589.84;;;-3.77;89.40
39681;BME280;26327;42.550;23.120;2024-01-10T00:26:32;93596.13;;;-4.01;90.55
39681;BME280;26327;42.550;23.120;2024-01-10T00:28:58;93684.69;;;-3.78;91.92
39681;BME280;26327;42.550;23.120;2024-01-10T00:31:23;93649.59;;;-3.54;91.63
39681;BME280;26327;42.550;23.120;2024-01-10T00:33:49;93653.13;;;-3.57;91.69
39681;BME280;26327;42.550;23.120;2024-01-10T00:36:14;93685.13;;;-3.04;90.86
39681;BME280;26327;42.550;23.120;2024-01-10T00:38:40;93573.31;;;-3.68;90.08
39681;BME280;26327;42.550;23.120;2024-01-10T00:41:05;93666.94;;;-3.12;90.83
39681;BME280;26327;42.550;23.120;2024-01-10T00:43:31;93660.38;;;-3.00;89.68
39681;BME280;26327;42.550;23.120;2024-01-10T00:45:57;93677.28;;;-3.32;89.79
39681;BME280;26327;42.550;23.120;2024-01-10T00:48:22;93664.03;;;-3.55;90.48
39681;BME280;26327;42.550;23.120;2024-01-10T00:50:47;93699.13;;;-3.45;89.80
39681;BME280;26327;42.550;23.120;2024-01-10T00:53:13;93697.00;;;-3.37;90.84
39681;BME280;26327;42.550;23.120;2024-01-10T00:55:38;93652.50;;;-4.48;91.88
39681;BME280;26327;42.550;23.120;2024-01-10T00:58:04;93723.13;;;-4.58;94.27
39681;BME280;26327;42.550;23.120;2024-01-10T01:00:29;93695.59;;;-4.29;93.49
39681;BME280;26327;42.550;23.120;2024-01-10T01:02:55;93701.16;;;-3.87;91.53
39681;BME280;26327;42.550;23.120;2024-01-10T01:05:20;93635.31;;;-4.24;90.53
39681;BME280;26327;42.550;23.120;2024-01-10T01:07:45;93698.94;;;-3.75;90.14
39681;BME280;26327;42.550;23.120;2024-01-10T01:10:11;93681.75;;;-3.88;90.16
39681;BME280;26327;42.550;23.120;2024-01-10T01:12:37;93632.44;;;-4.35;89.69
39681;BME280;26327;42.550;23.120;2024-01-10T01:15:03;93650.00;;;-4.31;90.09
39681;BME280;26327;42.550;23.120;2024-01-10T01:17:28;93715.63;;;-4.23;89.85
39681;BME280;26327;42.550;23.120;2024-01-10T01:19:54;93707.72;;;-4.00;88.65
39681;BME280;26327;42.550;23.120;2024-01-10T01:22:19;93713.63;;;-4.17;88.58
39681;BME280;26327;42.550;23.120;2024-01-10T01:24:45;93669.44;;;-4.13;87.39
39681;BME280;26327;42.550;23.120;2024-01-10T01:27:10;93694.00;;;-3.96;86.21
39681;BME280;26327;42.550;23.120;2024-01-10T01:29:35;93690.28;;;-4.42;87.34
39681;BME280;26327;42.550;23.120;2024-01-10T01:32:01;93645.91;;;-4.88;87.79
39681;BME280;26327;42.550;23.120;2024-01-10T01:34:26;93697.38;;;-4.67;89.73
39681;BME280;26327;42.550;23.120;2024-01-10T01:36:52;93624.16;;;-5.49;90.46
39681;BME280;26327;42.550;23.120;2024-01-10T01:39:20;93631.03;;;-6.10;93.45
39681;BME280;26327;42.550;23.120;2024-01-10T01:41:45;93678.19;;;-5.11;91.32
39681;BME280;26327;42.550;23.120;2024-01-10T01:44:11;93701.94;;;-4.76;89.13
39681;BME280;26327;42.550;23.120;2024-01-10T01:46:36;93711.09;;;-4.71;89.33
39681;BME280;26327;42.550;23.120;2024-01-10T01:49:03;93662.72;;;-5.04;89.26
39681;BME280;26327;42.550;23.120;2024-01-10T01:51:29;93674.69;;;-4.89;88.29
39681;BME280;26327;42.550;23.120;2024-01-10T01:53:56;93704.28;;;-4.71;86.49
39681;BME280;26327;42.550;23.120;2024-01-10T01:56:22;93689.88;;;-6.71;91.51
39681;BME280;26327;42.550;23.120;2024-01-10T01:58:50;93688.94;;;-7.13;97.59
39681;BME280;26327;42.550;23.120;2024-01-10T02:01:16;93702.94;;;-5.95;95.41
39681;BME280;26327;42.550;23.120;2024-01-10T02:03:46;93687.47;;;-5.30;91.51
39681;BME280;26327;42.550;23.120;2024-01-10T02:06:12;93632.09;;;-5.56;89.78
39681;BME280;26327;42.550;23.120;2024-01-10T02:08:37;93688.28;;;-5.29;89.45
39681;BME280;26327;42.550;23.120;2024-01-10T02:11:03;93620.53;;;-5.82;89.90
39681;BME280;26327;42.550;23.120;2024-01-10T02:13:29;93676.91;;;-5.40;89.71
39681;BME280;26327;42.550;23.120;2024-01-10T02:15:57;93673.28;;;-5.34;88.79
39681;BME280;26327;42.550;23.120;2024-01-10T02:18:22;93694.50;;;-5.16;87.73
39681;BME280;26327;42.550;23.120;2024-01-10T02:20:47;93634.28;;;-5.69;87.83
39681;BME280;26327;42.550;23.120;2024-01-10T02:23:13;93693.16;;;-5.64;87.89
39681;BME280;26327;42.550;23.120;2024-01-10T02:25:40;93683.78;;;-5.82;88.71
39681;BME280;26327;42.550;23.120;2024-01-10T02:28:06;93692.78;;;-5.75;89.78
39681;BME280;26327;42.550;23.120;2024-01-10T02:30:32;93694.06;;;-5.65;89.52
39681;BME280;26327;42.550;23.120;2024-01-10T02:32:57;93644.41;;;-5.69;87.87
39681;BME280;26327;42.550;23.120;2024-01-10T02:35:22;93639.25;;;-5.66;87.14
39681;BME280;26327;42.550;23.120;2024-01-10T02:37:48;93695.25;;;-5.53;86.87
39681;BME280;26327;42.550;23.120;2024-01-10T02:40:16;93676.69;;;-5.54;87.44
39681;BME280;26327;42.550;23.120;2024-01-10T02:42:42;93616.91;;;-5.95;87.01
39681;BME280;26327;42.550;23.120;2024-01-10T02:45:07;93688.81;;;-6.43;89.57
39681;BME280;26327;42.550;23.120;2024-01-10T02:47:33;93688.19;;;-7.39;93.79
39681;BME280;26327;42.550;23.120;2024-01-10T02:49:58;93594.16;;;-6.78;92.00
39681;BME280;26327;42.550;23.120;2024-01-10T02:52:24;93682.38;;;-5.69;89.14
39681;BME280;26327;42.550;23.120;2024-01-10T02:54:49;93625.50;;;-5.99;87.82
39681;BME280;26327;42.550;23.120;2024-01-10T02:57:14;93564.72;;;-6.18;87.03
39681;BME280;26327;42.550;23.120;2024-01-10T02:59:40;93687.72;;;-6.16;88.27
39681;BME280;26327;42.550;23.120;2024-01-10T03:02:05;93560.66;;;-6.61;89.16
39681;BME280;26327;42.550;23.120;2024-01-10T03:04:30;93674.16;;;-5.54;87.60
39681;BME280;26327;42.550;23.120;2024-01-10T03:06:56;93691.63;;;-5.68;88.14
39681;BME280;26327;42.550;23.120;2024-01-10T03:09:22;93540.16;;;-6.35;87.05
39681;BME280;26327;42.550;23.120;2024-01-10T03:11:48;93669.78;;;-5.71;86.48
39681;BME280;26327;42.550;23.120;2024-01-10T03:14:13;93679.28;;;-5.55;86.52
39681;BME280;26327;42.550;23.120;2024-01-10T03:16:39;93642.16;;;-6.14;87.78
39681;BME280;26327;42.550;23.120;2024-01-10T03:19:04;93693.53;;;-5.73;87.65
39681;BME280;26327;42.550;23.120;2024-01-10T03:21:30;93658.09;;;-5.92;87.51
39681;BME280;26327;42.550;23.120;2024-01-10T03:23:56;93625.06;;;-6.50;87.25
39681;BME280;26327;42.550;23.120;2024-01-10T03:26:23;93693.09;;;-5.62;86.26
39681;BME280;26327;42.550;23.120;2024-01-10T03:28:48;93682.97;;;-5.62;85.75
39681;BME280;26327;42.550;23.120;2024-01-10T03:31:14;93582.56;;;-6.21;85.23
39681;BME280;26327;42.550;23.120;2024-01-10T03:33:39;93672.66;;;-5.78;85.57
39681;BME280;26327;42.550;23.120;2024-01-10T03:36:06;93654.25;;;-6.22;85.85
39681;BME280;26327;42.550;23.120;2024-01-10T03:38:32;93627.47;;;-6.06;86.52
39681;BME280;26327;42.550;23.120;2024-01-10T03:40:57;93649.31;;;-5.64;85.26
39681;BME280;26327;42.550;23.120;2024-01-10T03:43:22;93619.47;;;-7.23;88.33
39681;BME280;26327;42.550;23.120;2024-01-10T03:45:48;93700.34;;;-5.94;87.70
39681;BME280;26327;42.550;23.120;2024-01-10T03:48:13;93616.66;;;-6.10;86.30
39681;BME280;26327;42.550;23.120;2024-01-10T03:50:38;93701.66;;;-5.65;86.32
39681;BME280;26327;42.550;23.120;2024-01-10T03:53:04;93699.53;;;-6.58;87.72
39681;BME280;26327;42.550;23.120;2024-01-10T03:55:29;93693.75;;;-6.84;89.40
39681;BME280;26327;42.550;23.120;2024-01-10T03:57:56;93701.59;;;-6.46;87.75
39681;BME280;26327;42.550;23.120;2024-01-10T04:00:21;93650.84;;;-8.01;90.81
39681;BME280;26327;42.550;23.120;2024-01-10T04:02:47;93714.19;;;-7.85;93.71
39681;BME280;26327;42.550;23.120;2024-01-10T04:05:12;93693.16;;;-7.61;94.20
39681;BME280;26327;42.550;23.120;2024-01-10T04:07:41;93675.22;;;-6.61;89.28
39681;BME280;26327;42.550;23.120;2024-01-10T04:10:10;93651.09;;;-6.27;86.11
39681;BME280;26327;42.550;23.120;2024-01-10T04:12:36;93632.13;;;-6.80;88.51
39681;BME280;26327;42.550;23.120;2024-01-10T04:15:06;93614.00;;;-6.69;87.64
39681;BME280;26327;42.550;23.120;2024-01-10T04:17:32;93704.13;;;-6.04;86.36
39681;BME280;26327;42.550;23.120;2024-01-10T04:19:57;93699.03;;;-5.84;85.11
39681;BME280;26327;42.550;23.120;2024-01-10T04:22:26;93651.88;;;-6.25;84.74
39681;BME280;26327;42.550;23.120;2024-01-10T04:24:51;93669.84;;;-6.97;86.12
39681;BME280;26327;42.550;23.120;2024-01-10T04:27:17;93656.44;;;-8.95;92.64
39681;BME280;26327;42.550;23.120;2024-01-10T04:29:45;93663.41;;;-9.33;99.22
39681;BME280;26327;42.550;23.120;2024-01-10T04:32:11;93550.66;;;-10.35;99.94
39681;BME280;26327;42.550;23.120;2024-01-10T04:34:36;93678.94;;;-8.36;98.30
39681;BME280;26327;42.550;23.120;2024-01-10T04:37:02;93724.53;;;-7.19;92.89
39681;BME280;26327;42.550;23.120;2024-01-10T04:39:27;93711.44;;;-6.84;90.88
39681;BME280;26327;42.550;23.120;2024-01-10T04:41:53;93617.63;;;-8.13;90.52
39681;BME280;26327;42.550;23.120;2024-01-10T04:44:18;93741.66;;;-6.81;90.58
39681;BME280;26327;42.550;23.120;2024-01-10T04:46:44;93671.19;;;-6.88;88.14
39681;BME280;26327;42.550;23.120;2024-01-10T04:49:09;93693.75;;;-6.84;87.80
39681;BME280;26327;42.550;23.120;2024-01-10T04:51:35;93735.38;;;-7.17;89.98
39681;BME280;26327;42.550;23.120;2024-01-10T04:54:00;93660.88;;;-7.99;92.55
39681;BME280;26327;42.550;23.120;2024-01-10T04:56:26;93708.44;;;-6.93;90.99
39681;BME280;26327;42.550;23.120;2024-01-10T04:58:51;93551.75;;;-8.28;87.93
39681;BME280;26327;42.550;23.120;2024-01-10T05:01:17;93628.22;;;-8.29;91.50
39681;BME280;26327;42.550;23.120;2024-01-10T05:03:43;93672.78;;;-8.04;90.93
39681;BME280;26327;42.550;23.120;2024-01-10T05:06:08;93649.84;;;-7.48;89.88
39681;BME280;26327;42.550;23.120;2024-01-10T05:08:33;93689.09;;;-6.94;88.14
39681;BME280;26327;42.550;23.120;2024-01-10T05:10:59;93714.03;;;-6.42;85.57
39681;BME280;26327;42.550;23.120;2024-01-10T05:13:24;93763.72;;;-5.97;85.64
39681;BME280;26327;42.550;23.120;2024-01-10T05:15:50;93757.94;;;-6.66;85.43
39681;BME280;26327;42.550;23.120;2024-01-10T05:18:17;93740.88;;;-7.53;88.97
39681;BME280;26327;42.550;23.120;2024-01-10T05:20:43;93767.31;;;-7.89;90.64
39681;BME280;26327;42.550;23.120;2024-01-10T05:23:08;93757.06;;;-8.64;94.79
39681;BME280;26327;42.550;23.120;2024-01-10T05:25:33;93772.50;;;-7.69;93.81
39681;BME280;26327;42.550;23.120;2024-01-10T05:27:59;93634.09;;;-7.55;89.28
39681;BME280;26327;42.550;23.120;2024-01-10T05:30:24;93758.94;;;-7.17;88.52
39681;BME280;26327;42.550;23.120;2024-01-10T05:32:50;93716.22;;;-7.71;90.84
39681;BME280;26327;42.550;23.120;2024-01-10T05:35:16;93751.34;;;-6.70;88.43
39681;BME280;26327;42.550;23.120;2024-01-10T05:37:41;93746.22;;;-6.45;86.13
39681;BME280;26327;42.550;23.120;2024-01-10T05:40:07;93753.31;;;-6.55;86.01
39681;BME280;26327;42.550;23.120;2024-01-10T05:42:32;93752.63;;;-6.37;85.54
39681;BME280;26327;42.550;23.120;2024-01-10T05:45:01;93773.31;;;-6.49;86.10
39681;BME280;26327;42.550;23.120;2024-01-10T05:47:27;93771.31;;;-6.86;87.90
39681;BME280;26327;42.550;23.120;2024-01-10T05:49:53;93778.81;;;-7.31;90.56
39681;BME280;26327;42.550;23.120;2024-01-10T05:52:19;93773.84;;;-6.86;89.23
39681;BME280;26327;42.550;23.120;2024-01-10T05:54:45;93754.84;;;-6.29;86.17
39681;BME280;26327;42.550;23.120;2024-01-10T05:57:10;93781.28;;;-7.30;87.42
39681;BME280;26327;42.550;23.120;2024-01-10T05:59:36;93770.66;;;-7.39;90.04
39681;BME280;26327;42.550;23.120;2024-01-10T06:02:02;93776.16;;;-7.28;89.17
39681;BME280;26327;42.550;23.120;2024-01-10T06:04:28;93719.69;;;-7.49;89.41
39681;BME280;26327;42.550;23.120;2024-01-10T06:07:00;93723.16;;;-8.01;88.54
39681;BME280;26327;42.550;23.120;2024-01-10T06:09:25;93788.06;;;-7.81;90.92
39681;BME280;26327;42.550;23.120;2024-01-10T06:11:51;93790.47;;;-8.87;93.66
39681;BME280;26327;42.550;23.120;2024-01-10T06:14:16;93790.69;;;-8.95;97.28
39681;BME280;26327;42.550;23.120;2024-01-10T06:16:42;93815.53;;;-8.27;95.09
39681;BME280;26327;42.550;23.120;2024-01-10T06:19:09;93749.41;;;-9.18;95.37
39681;BME280;26327;42.550;23.120;2024-01-10T06:21:35;93758.31;;;-8.49;96.36
39681;BME280;26327;42.550;23.120;2024-01-10T06:24:01;93798.84;;;-8.03;95.00
39681;BME280;26327;42.550;23.120;2024-01-10T06:26:26;93731.31;;;-7.45;91.35
39681;BME280;26327;42.550;23.120;2024-01-10T06:28:51;93788.63;;;-7.23;89.92
39681;BME280;26327;42.550;23.120;2024-01-10T06:31:17;93776.88;;;-7.74;91.72
39681;BME280;26327;42.550;23.120;2024-01-10T06:33:42;93728.69;;;-7.67;92.11
39681;BME280;26327;42.550;23.120;2024-01-10T06:36:08;93781.69;;;-7.42;91.94
39681;BME280;26327;42.550;23.120;2024-01-10T06:38:33;93796.91;;;-7.70;93.15
39681;BME280;26327;42.550;23.120;2024-01-10T06:40:58;93749.03;;;-8.22;94.91
39681;BME280;26327;42.550;23.120;2024-01-10T06:43:24;93815.84;;;-8.36;95.43
39681;BME280;26327;42.550;23.120;2024-01-10T06:45:49;93754.31;;;-8.57;97.43
39681;BME280;26327;42.550;23.120;2024-01-10T06:48:15;93805.31;;;-8.22;96.83
39681;BME280;26327;42.550;23.120;2024-01-10T06:50:40;93702.75;;;-8.73;98.08
39681;BME280;26327;42.550;23.120;2024-01-10T06:53:06;93807.81;;;-7.43;97.00
39681;BME280;26327;42.550;23.120;2024-01-10T06:55:32;93699.63;;;-8.02;95.12
39681;BME280;26327;42.550;23.120;2024-01-10T06:57:57;93706.72;;;-7.88;95.95
39681;BME280;26327;42.550;23.120;2024-01-10T07:00:22;93816.09;;;-7.14;94.99
39681;BME280;26327;42.550;23.120;2024-01-10T07:02:49;93824.09;;;-7.26;96.36
39681;BME280;26327;42.550;23.120;2024-01-10T07:05:15;93769.41;;;-7.51;96.33
39681;BME280;26327;42.550;23.120;2024-01-10T07:07:41;93828.59;;;-6.40;95.62
39681;BME280;26327;42.550;23.120;2024-01-10T07:10:07;93814.31;;;-5.77;92.76
39681;BME280;26327;42.550;23.120;2024-01-10T07:12:35;93840.84;;;-6.76;96.24
39681;BME280;26327;42.550;23.120;2024-01-10T07:15:00;93766.00;;;-7.50;97.13
39681;BME280;26327;42.550;23.120;2024-01-10T07:17:28;93831.72;;;-7.03;98.33
39681;BME280;26327;42.550;23.120;2024-01-10T07:19:53;93838.97;;;-6.71;97.52
39681;BME280;26327;42.550;23.120;2024-01-10T07:22:22;93748.56;;;-7.57;100.00
39681;BME280;26327;42.550;23.120;2024-01-10T07:24:47;93786.09;;;-7.23;100.00
39681;BME280;26327;42.550;23.120;2024-01-10T07:27:13;93846.34;;;-6.88;100.00
39681;BME280;26327;42.550;23.120;2024-01-10T07:29:40;93823.34;;;-6.12;99.92
39681;BME280;26327;42.550;23.120;2024-01-10T07:32:06;93782.06;;;-5.92;97.61
39681;BME280;26327;42.550;23.120;2024-01-10T07:34:36;93784.03;;;-5.98;97.19
39681;BME280;26327;42.550;23.120;2024-01-10T07:37:01;93838.94;;;-5.58;97.28
39681;BME280;26327;42.550;23.120;2024-01-10T07:39:28;93706.25;;;-5.75;95.09
39681;BME280;26327;42.550;23.120;2024-01-10T07:41:53;93835.81;;;-4.84;94.98
39681;BME280;26327;42.550;23.120;2024-01-10T07:44:19;93840.81;;;-4.82;94.48
39681;BME280;26327;42.550;23.120;2024-01-10T07:46:45;93822.78;;;-4.95;94.72
39681;BME280;26327;42.550;23.120;2024-01-10T07:49:10;93854.34;;;-4.24;93.71
39681;BME280;26327;42.550;23.120;2024-01-10T07:51:35;93826.00;;;-3.78;92.23
39681;BME280;26327;42.550;23.120;2024-01-10T07:54:01;93851.84;;;-3.52;91.87
39681;BME280;26327;42.550;23.120;2024-01-10T07:56:26;93851.59;;;-3.64;92.58
39681;BME280;26327;42.550;23.120;2024-01-10T07:58:52;93801.03;;;-3.69;92.21
39681;BME280;26327;42.550;23.120;2024-01-10T08:01:17;93849.72;;;-3.25;91.52
39681;BME280;26327;42.550;23.120;2024-01-10T08:03:43;93853.34;;;-2.96;90.09
39681;BME280;26327;42.550;23.120;2024-01-10T08:06:08;93845.72;;;-2.78;88.76
39681;BME280;26327;42.550;23.120;2024-01-10T08:08:35;93842.16;;;-2.59;87.31
39681;BME280;26327;42.550;23.120;2024-01-10T08:11:01;93845.19;;;-2.68;86.46
39681;BME280;26327;42.550;23.120;2024-01-10T08:13:27;93850.91;;;-2.47;85.19
39681;BME280;26327;42.550;23.120;2024-01-10T08:15:53;93851.84;;;-2.65;85.83
39681;BME280;26327;42.550;23.120;2024-01-10T08:18:19;93794.63;;;-3.41;87.56
39681;BME280;26327;42.550;23.120;2024-01-10T08:20:44;93844.44;;;-3.39;90.11
39681;BME280;26327;42.550;23.120;2024-01-10T08:23:10;93800.53;;;-3.24;87.54
39681;BME280;26327;42.550;23.120;2024-01-10T08:25:35;93837.38;;;-3.15;86.63
39681;BME280;26327;42.550;23.120;2024-01-10T08:28:00;93831.91;;;-3.07;85.19
39681;BME280;26327;42.550;23.120;2024-01-10T08:30:26;93792.75;;;-3.21;85.79
39681;BME280;26327;42.550;23.120;2024-01-10T08:32:52;93783.78;;;-3.10;86.21
39681;BME280;26327;42.550;23.120;2024-01-10T08:35:17;93835.03;;;-3.02;86.95
39681;BME280;26327;42.550;23.120;2024-01-10T08:37:44;93854.09;;;-2.76;87.02
39681;BME280;26327;42.550;23.120;2024-01-10T08:40:12;93844.59;;;-2.73;87.24
39681;BME280;26327;42.550;23.120;2024-01-10T08:42:40;93844.69;;;-2.74;85.62
39681;BME280;26327;42.550;23.120;2024-01-10T08:45:06;93831.34;;;-2.62;85.16
39681;BME280;26327;42.550;23.120;2024-01-10T08:47:31;93854.53;;;-2.86;85.69
39681;BME280;26327;42.550;23.120;2024-01-10T08:50:01;93849.88;;;-2.60;85.34
39681;BME280;26327;42.550;23.120;2024-01-10T08:52:27;93795.47;;;-2.91;83.27
39681;BME280;26327;42.550;23.120;2024-01-10T08:54:52;93831.84;;;-2.40;83.45
39681;BME280;26327;42.550;23.120;2024-01-10T08:57:17;93837.72;;;-2.71;83.69
39681;BME280;26327;42.550;23.120;2024-01-10T08:59:43;93798.59;;;-2.86;83.52
39681;BME280;26327;42.550;23.120;2024-01-10T09:02:08;93856.72;;;-2.45;83.84
39681;BME280;26327;42.550;23.120;2024-01-10T09:04:33;93793.34;;;-2.65;83.03
39681;BME280;26327;42.550;23.120;2024-01-10T09:06:59;93827.16;;;-2.14;81.80
39681;BME280;26327;42.550;23.120;2024-01-10T09:09:24;93840.06;;;-1.86;82.08
39681;BME280;26327;42.550;23.120;2024-01-10T09:11:49;93809.88;;;-1.94;81.17
39681;BME280;26327;42.550;23.120;2024-01-10T09:14:15;93853.78;;;-1.73;80.82
39681;BME280;26327;42.550;23.120;2024-01-10T09:16:40;93808.16;;;-1.77;78.47
39681;BME280;26327;42.550;23.120;2024-01-10T09:19:06;93822.59;;;-1.62;79.57
39681;BME280;26327;42.550;23.120;2024-01-10T09:21:31;93844.94;;;-1.51;80.58
39681;BME280;26327;42.550;23.120;2024-01-10T09:23:56;93772.75;;;-1.82;79.79
39681;BME280;26327;42.550;23.120;2024-01-10T09:26:22;93826.44;;;-1.39;80.01
39681;BME280;26327;42.550;23.120;2024-01-10T09:28:48;93842.69;;;-1.26;79.74
39681;BME280;26327;42.550;23.120;2024-01-10T09:31:13;93843.16;;;-1.65;81.00
39681;BME280;26327;42.550;23.120;2024-01-10T09:33:40;93783.34;;;-1.44;80.53
39681;BME280;26327;42.550;23.120;2024-01-10T09:36:06;93789.28;;;-0.99;79.48
39681;BME280;26327;42.550;23.120;2024-01-10T09:38:37;93770.47;;;-2.02;81.58
39681;BME280;26327;42.550;23.120;2024-01-10T09:41:04;93797.81;;;-1.14;79.60
39681;BME280;26327;42.550;23.120;2024-01-10T09:43:30;93840.69;;;-0.47;78.96
39681;BME280;26327;42.550;23.120;2024-01-10T09:45:57;93837.38;;;0.08;76.86
39681;BME280;26327;42.550;23.120;2024-01-10T09:48:24;93841.94;;;-0.11;77.93
39681;BME280;26327;42.550;23.120;2024-01-10T09:50:51;93860.69;;;-0.69;79.31
39681;BME280;26327;42.550;23.120;2024-01-10T09:53:22;93788.06;;;-0.64;78.76
39681;BME280;26327;42.550;23.120;2024-01-10T09:55:56;93786.84;;;-0.15;78.23
39681;BME280;26327;42.550;23.120;2024-01-10T09:58:26;93835.00;;;0.05;78.15
39681;BME280;26327;42.550;23.120;2024-01-10T10:00:52;93826.13;;;0.52;76.62
39681;BME280;26327;42.550;23.120;2024-01-10T10:03:18;93806.94;;;0.45;77.26
39681;BME280;26327;42.550;23.120;2024-01-10T10:05:44;93760.31;;;0.81;73.41
39681;BME280;26327;42.550;23.120;2024-01-10T10:08:11;93795.34;;;1.06;72.15
39681;BME280;26327;42.550;23.120;2024-01-10T10:10:37;93791.75;;;0.96;72.90
39681;BME280;26327;42.550;23.120;2024-01-10T10:13:09;93797.50;;;1.12;73.47
39681;BME280;26327;42.550;23.120;2024-01-10T10:15:38;93800.38;;;0.68;74.61
39681;BME280;26327;42.550;23.120;2024-01-10T10:18:04;93754.16;;;0.31;74.83
39681;BME280;26327;42.550;23.120;2024-01-10T10:20:30;93742.53;;;1.17;71.23
39681;BME280;26327;42.550;23.120;2024-01-10T10:23:08;93750.50;;;1.25;71.89
39681;BME280;26327;42.550;23.120;2024-01-10T10:25:43;93746.81;;;1.55;72.78
39681;BME280;26327;42.550;23.120;2024-01-10T10:28:09;93771.81;;;1.39;72.18
39681;BME280;26327;42.550;23.120;2024-01-10T10:30:34;93768.94;;;2.42;69.88
39681;BME280;26327;42.550;23.120;2024-01-10T10:33:01;93716.53;;;3.03;67.06
39681;BME280;26327;42.550;23.120;2024-01-10T10:35:26;93765.75;;;3.77;67.53
39681;BME280;26327;42.550;23.120;2024-01-10T10:37:52;93721.59;;;3.38;67.62
39681;BME280;26327;42.550;23.120;2024-01-10T10:40:18;93764.94;;;3.43;66.94
39681;BME280;26327;42.550;23.120;2024-01-10T10:42:52;93742.28;;;5.00;61.56
39681;BME280;26327;42.550;23.120;2024-01-10T10:45:20;93690.66;;;4.81;60.26
39681;BME280;26327;42.550;23.120;2024-01-10T10:47:57;93733.03;;;5.18;59.02
39681;BME280;26327;42.550;23.120;2024-01-10T10:50:23;93699.50;;;5.29;57.90
39681;BME280;26327;42.550;23.120;2024-01-10T10:52:49;93737.59;;;5.87;56.39
39681;BME280;26327;42.550;23.120;2024-01-10T10:55:16;93678.38;;;5.35;58.16
39681;BME280;26327;42.550;23.120;2024-01-10T10:57:46;93672.66;;;6.03;56.19
39681;BME280;26327;42.550;23.120;2024-01-10T11:00:18;93717.41;;;5.10;59.27
39681;BME280;26327;42.550;23.120;2024-01-10T11:02:45;93717.44;;;4.14;61.84
39681;BME280;26327;42.550;23.120;2024-01-10T11:05:12;93651.56;;;5.48;59.13
39681;BME280;26327;42.550;23.120;2024-01-10T11:07:39;93710.75;;;6.58;55.31
39681;BME280;26327;42.550;23.120;2024-01-10T11:10:09;93657.59;;;6.08;55.96
39681;BME280;26327;42.550;23.120;2024-01-10T11:13:00;93703.22;;;7.79;53.31
39681;BME280;26327;42.550;23.120;2024-01-10T11:21:16;93691.00;;;8.27;49.27
39681;BME280;26327;42.550;23.120;2024-01-10T11:23:46;93681.50;;;8.45;47.35
39681;BME280;26327;42.550;23.120;2024-01-10T11:26:15;93672.78;;;7.64;50.10
39681;BME280;26327;42.550;23.120;2024-01-10T11:28:41;93646.22;;;8.62;47.32
39681;BME280;26327;42.550;23.120;2024-01-10T11:31:07;93635.28;;;8.05;48.89
39681;BME280;26327;42.550;23.120;2024-01-10T11:33:39;93688.88;;;6.43;51.83
39681;BME280;26327;42.550;23.120;2024-01-10T11:36:16;93691.88;;;6.87;51.84
39681;BME280;26327;42.550;23.120;2024-01-10T11:41:34;93681.66;;;7.61;51.01
39681;BME280;26327;42.550;23.120;2024-01-10T11:46:49;93675.94;;;9.11;46.33
39681;BME280;26327;42.550;23.120;2024-01-10T11:49:16;93620.97;;;8.46;46.73
39681;BME280;26327;42.550;23.120;2024-01-10T11:51:43;93625.84;;;7.86;49.05
39681;BME280;26327;42.550;23.120;2024-01-10T11:54:10;93653.94;;;8.08;47.93
39681;BME280;26327;42.550;23.120;2024-01-10T11:56:42;93653.97;;;7.99;48.85
39681;BME280;26327;42.550;23.120;2024-01-10T11:59:13;93623.81;;;8.07;46.50
39681;BME280;26327;42.550;23.120;2024-01-10T12:01:41;93646.63;;;7.94;49.83
39681;BME280;26327;42.550;23.120;2024-01-10T12:04:08;93615.63;;;8.83;46.52
39681;BME280;26327;42.550;23.120;2024-01-10T12:06:35;93570.59;;;8.58;47.38
39681;BME280;26327;42.550;23.120;2024-01-10T12:09:02;93660.09;;;7.70;49.76
39681;BME280;26327;42.550;23.120;2024-01-10T12:11:34;93610.22;;;8.23;48.54
39681;BME280;26327;42.550;23.120;2024-01-10T12:14:01;93660.59;;;8.11;48.60
39681;BME280;26327;42.550;23.120;2024-01-10T12:16:26;93653.03;;;8.17;49.09
39681;BME280;26327;42.550;23.120;2024-01-10T12:18:52;93649.97;;;8.85;47.52
39681;BME280;26327;42.550;23.120;2024-01-10T12:21:17;93654.31;;;7.49;52.00
39681;BME280;26327;42.550;23.120;2024-01-10T12:23:43;93596.41;;;8.68;48.07
39681;BME280;26327;42.550;23.120;2024-01-10T12:26:09;93552.81;;;8.28;47.00
39681;BME280;26327;42.550;23.120;2024-01-10T12:28:37;93646.84;;;8.99;47.38
39681;BME280;26327;42.550;23.120;2024-01-10T12:31:06;93641.19;;;7.33;50.00
39681;BME280;26327;42.550;23.120;2024-01-10T12:33:37;93640.84;;;3.86;58.43
39681;BME280;26327;42.550;23.120;2024-01-10T12:36:09;93649.88;;;5.27;60.22
39681;BME280;26327;42.550;23.120;2024-01-10T12:38:35;93607.56;;;5.80;55.74
39681;BME280;26327;42.550;23.120;2024-01-10T12:41:02;93645.28;;;8.17;50.48
39681;BME280;26327;42.550;23.120;2024-01-10T12:43:28;93622.38;;;8.40;48.88
39681;BME280;26327;42.550;23.120;2024-01-10T12:46:08;93625.75;;;9.20;46.63
39681;BME280;26327;42.550;23.120;2024-01-10T12:48:35;93591.88;;;8.70;45.75
39681;BME280;26327;42.550;23.120;2024-01-10T12:51:06;93629.69;;;8.80;47.56
39681;BME280;26327;42.550;23.120;2024-01-10T12:53:43;93593.22;;;7.48;50.43
39681;BME280;26327;42.550;23.120;2024-01-10T12:56:10;93629.66;;;8.98;47.60
39681;BME280;26327;42.550;23.120;2024-01-10T12:58:40;93622.38;;;8.40;49.77
39681;BME280;26327;42.550;23.120;2024-01-10T13:01:08;93588.16;;;6.82;51.36